sensor_id;sensor_type;location;lat;lon;timestamp;pressure;altitude;pressure_sealevel;temperature;humidity
75460;BME280;64039;53.060;9.342;2023-09-08T00:02:05;101659.56;;;16.28;100.00
75460;BME280;64039;53.060;9.342;2023-09-08T00:04:31;101653.53;;;16.38;100.00
75460;BME280;64039;53.060;9.342;2023-09-08T00:06:58;101663.13;;;16.31;100.00
75460;BME280;64039;53.060;9.342;2023-09-08T00:09:24;101647.41;;;16.36;100.00
75460;BME280;64039;53.060;9.342;2023-09-08T00:11:49;101653.41;;;16.24;100.00
75460;BME280;64039;53.060;9.342;2023-09-08T00:14:15;101649.78;;;16.14;100.00
75460;BME280;64039;53.060;9.342;2023-09-08T00:16:40;101647.16;;;16.14;100.00
75460;BME280;64039;53.060;9.342;2023-09-08T00:19:08;101644.50;;;16.13;100.00
75460;BME280;64039;53.060;9.342;2023-09-08T00:21:33;101646.19;;;16.08;100.00
75460;BME280;64039;53.060;9.342;2023-09-08T00:23:59;101646.06;;;15.95;100.00
75460;BME280;64039;53.060;9.342;2023-09-08T00:26:26;101638.19;;;15.95;100.00
75460;BME280;64039;53.060;9.342;2023-09-08T00:28:51;101637.25;;;15.90;100.00
75460;BME280;64039;53.060;9.342;2023-09-08T00:31:17;101641.59;;;15.86;100.00
75460;BME280;64039;53.060;9.342;2023-09-08T00:33:42;101636.34;;;15.88;100.00
75460;BME280;64039;53.060;9.342;2023-09-08T00:36:09;101633.56;;;15.79;100.00
75460;BME280;64039;53.060;9.342;2023-09-08T00:38:35;101630.19;;;15.84;100.00
75460;BME280;64039;53.060;9.342;2023-09-08T00:41:00;101633.66;;;15.85;100.00
75460;BME280;64039;53.060;9.342;2023-09-08T00:43:26;101632.72;;;15.80;100.00
75460;BME280;64039;53.060;9.342;2023-09-08T00:45:53;101630.03;;;15.77;100.00
75460;BME280;64039;53.060;9.342;2023-09-08T00:48:19;101635.34;;;15.83;100.00
75460;BME280;64039;53.060;9.342;2023-09-08T00:50:45;101642.28;;;15.78;100.00
75460;BME280;64039;53.060;9.342;2023-09-08T00:53:10;101634.38;;;15.73;100.00
75460;BME280;64039;53.060;9.342;2023-09-08T00:55:36;101637.72;;;15.63;100.00
75460;BME280;64039;53.060;9.342;2023-09-08T00:58:03;101635.19;;;15.69;100.00
75460;BME280;64039;53.060;9.342;2023-09-08T01:00:29;101633.44;;;15.69;100.00
75460;BME280;64039;53.060;9.342;2023-09-08T01:02:55;101642.09;;;15.61;100.00
75460;BME280;64039;53.060;9.342;2023-09-08T01:05:20;101628.06;;;15.57;100.00
75460;BME280;64039;53.060;9.342;2023-09-08T01:07:46;101626.22;;;15.53;100.00
75460;BME280;64039;53.060;9.342;2023-09-08T01:10:13;101619.22;;;15.53;100.00
75460;BME280;64039;53.060;9.342;2023-09-08T01:12:39;101620.13;;;15.52;100.00
75460;BME280;64039;53.060;9.342;2023-09-08T01:15:05;101624.44;;;15.50;100.00
75460;BME280;64039;53.060;9.342;2023-09-08T01:17:31;101623.59;;;15.53;100.00
75460;BME280;64039;53.060;9.342;2023-09-08T01:19:58;101617.34;;;15.43;100.00
75460;BME280;64039;53.060;9.342;2023-09-08T01:27:38;101620.59;;;15.25;100.00
75460;BME280;64039;53.060;9.342;2023-09-08T01:30:06;101621.28;;;15.12;100.00
75460;BME280;64039;53.060;9.342;2023-09-08T01:32:32;101624.75;;;15.12;100.00
75460;BME280;64039;53.060;9.342;2023-09-08T01:34:59;101621.22;;;15.08;100.00
75460;BME280;64039;53.060;9.342;2023-09-08T01:37:25;101615.19;;;15.14;100.00
75460;BME280;64039;53.060;9.342;2023-09-08T01:39:51;101615.25;;;15.17;100.00
75460;BME280;64039;53.060;9.342;2023-09-08T01:42:16;101613.50;;;15.19;100.00
75460;BME280;64039;53.060;9.342;2023-09-08T01:44:42;101613.47;;;15.16;100.00
75460;BME280;64039;53.060;9.342;2023-09-08T01:47:07;101617.72;;;15.08;100.00
75460;BME280;64039;53.060;9.342;2023-09-08T01:49:33;101616.13;;;15.19;100.00
75460;BME280;64039;53.060;9.342;2023-09-08T01:51:58;101611.72;;;15.17;100.00
75460;BME280;64039;53.060;9.342;2023-09-08T01:54:24;101613.31;;;15.05;100.00
75460;BME280;64039;53.060;9.342;2023-09-08T01:56:49;101609.72;;;15.00;100.00
75460;BME280;64039;53.060;9.342;2023-09-08T01:59:16;101610.69;;;15.05;100.00
75460;BME280;64039;53.060;9.342;2023-09-08T02:01:42;101608.00;;;15.01;100.00
75460;BME280;64039;53.060;9.342;2023-09-08T02:04:07;101603.63;;;15.03;100.00
75460;BME280;64039;53.060;9.342;2023-09-08T02:06:33;101605.34;;;14.99;100.00
75460;BME280;64039;53.060;9.342;2023-09-08T02:08:58;101598.28;;;14.95;100.00
75460;BME280;64039;53.060;9.342;2023-09-08T02:11:24;101591.22;;;14.91;100.00
75460;BME280;64039;53.060;9.342;2023-09-08T02:13:49;101590.28;;;14.87;100.00
75460;BME280;64039;53.060;9.342;2023-09-08T02:16:15;101590.41;;;14.93;100.00
75460;BME280;64039;53.060;9.342;2023-09-08T02:18:44;101588.53;;;14.86;100.00
75460;BME280;64039;53.060;9.342;2023-09-08T02:21:10;101585.78;;;14.77;100.00
75460;BME280;64039;53.060;9.342;2023-09-08T02:23:36;101590.16;;;14.78;100.00
75460;BME280;64039;53.060;9.342;2023-09-08T02:26:02;101590.97;;;14.75;100.00
75460;BME280;64039;53.060;9.342;2023-09-08T02:28:27;101593.53;;;14.71;100.00
75460;BME280;64039;53.060;9.342;2023-09-08T02:30:53;101595.28;;;14.72;100.00
75460;BME280;64039;53.060;9.342;2023-09-08T02:33:19;101596.88;;;14.63;100.00
75460;BME280;64039;53.060;9.342;2023-09-08T02:35:44;101593.41;;;14.65;100.00
75460;BME280;64039;53.060;9.342;2023-09-08T02:38:10;101595.16;;;14.66;100.00
75460;BME280;64039;53.060;9.342;2023-09-08T02:40:35;101598.69;;;14.66;100.00
75460;BME280;64039;53.060;9.342;2023-09-08T02:43:02;101597.84;;;14.67;100.00
75460;BME280;64039;53.060;9.342;2023-09-08T02:45:27;101597.72;;;14.61;100.00
75460;BME280;64039;53.060;9.342;2023-09-08T02:47:53;101595.84;;;14.55;100.00
75460;BME280;64039;53.060;9.342;2023-09-08T02:50:19;101594.94;;;14.53;100.00
75460;BME280;64039;53.060;9.342;2023-09-08T02:52:44;101595.75;;;14.49;100.00
75460;BME280;64039;53.060;9.342;2023-09-08T02:55:10;101597.13;;;14.76;100.00
75460;BME280;64039;53.060;9.342;2023-09-08T02:57:37;101594.91;;;14.50;100.00
75460;BME280;64039;53.060;9.342;2023-09-08T03:00:03;101592.06;;;14.38;100.00
75460;BME280;64039;53.060;9.342;2023-09-08T03:02:30;101584.13;;;14.33;100.00
75460;BME280;64039;53.060;9.342;2023-09-08T03:04:55;101591.88;;;14.28;100.00
75460;BME280;64039;53.060;9.342;2023-09-08T03:07:21;101584.28;;;14.41;100.00
75460;BME280;64039;53.060;9.342;2023-09-08T03:09:47;101587.06;;;14.50;100.00
75460;BME280;64039;53.060;9.342;2023-09-08T03:12:12;101588.81;;;14.51;100.00
75460;BME280;64039;53.060;9.342;2023-09-08T03:14:38;101583.53;;;14.50;100.00
75460;BME280;64039;53.060;9.342;2023-09-08T03:17:03;101586.19;;;14.51;100.00
75460;BME280;64039;53.060;9.342;2023-09-08T03:19:29;101583.44;;;14.43;100.00
75460;BME280;64039;53.060;9.342;2023-09-08T03:21:54;101573.59;;;14.30;100.00
75460;BME280;64039;53.060;9.342;2023-09-08T03:24:20;101578.03;;;14.36;100.00
75460;BME280;64039;53.060;9.342;2023-09-08T03:26:45;101572.88;;;14.40;100.00
75460;BME280;64039;53.060;9.342;2023-09-08T03:29:11;101570.16;;;14.33;100.00
75460;BME280;64039;53.060;9.342;2023-09-08T03:31:36;101571.88;;;14.32;100.00
75460;BME280;64039;53.060;9.342;2023-09-08T03:34:02;101566.56;;;14.27;100.00
75460;BME280;64039;53.060;9.342;2023-09-08T03:36:27;101570.06;;;14.26;100.00
75460;BME280;64039;53.060;9.342;2023-09-08T03:38:53;101565.59;;;14.21;100.00
75460;BME280;64039;53.060;9.342;2023-09-08T03:41:18;101568.44;;;14.35;100.00
75460;BME280;64039;53.060;9.342;2023-09-08T03:43:44;101559.53;;;14.25;100.00
75460;BME280;64039;53.060;9.342;2023-09-08T03:46:09;101560.25;;;14.16;100.00
75460;BME280;64039;53.060;9.342;2023-09-08T03:48:34;101554.13;;;14.15;100.00
75460;BME280;64039;53.060;9.342;2023-09-08T03:51:00;101562.81;;;14.13;100.00
75460;BME280;64039;53.060;9.342;2023-09-08T03:53:25;101563.78;;;14.18;100.00
75460;BME280;64039;53.060;9.342;2023-09-08T03:55:51;101566.53;;;14.26;100.00
75460;BME280;64039;53.060;9.342;2023-09-08T03:58:16;101561.25;;;14.23;100.00
75460;BME280;64039;53.060;9.342;2023-09-08T04:00:42;101563.75;;;14.17;100.00
75460;BME280;64039;53.060;9.342;2023-09-08T04:03:08;101555.81;;;14.12;100.00
75460;BME280;64039;53.060;9.342;2023-09-08T04:05:33;101552.25;;;14.08;100.00
75460;BME280;64039;53.060;9.342;2023-09-08T04:07:59;101551.41;;;14.11;100.00
75460;BME280;64039;53.060;9.342;2023-09-08T04:10:25;101552.22;;;14.05;100.00
75460;BME280;64039;53.060;9.342;2023-09-08T04:12:50;101554.00;;;14.08;100.00
75460;BME280;64039;53.060;9.342;2023-09-08T04:15:16;101544.22;;;13.97;100.00
75460;BME280;64039;53.060;9.342;2023-09-08T04:17:41;101552.94;;;13.98;100.00
75460;BME280;64039;53.060;9.342;2023-09-08T04:20:07;101559.81;;;13.93;100.00
75460;BME280;64039;53.060;9.342;2023-09-08T04:22:34;101553.63;;;13.88;100.00
75460;BME280;64039;53.060;9.342;2023-09-08T04:25:00;101549.16;;;13.83;100.00
75460;BME280;64039;53.060;9.342;2023-09-08T04:27:26;101555.22;;;13.81;100.00
75460;BME280;64039;53.060;9.342;2023-09-08T04:29:51;101549.03;;;13.76;100.00
75460;BME280;64039;53.060;9.342;2023-09-08T04:32:17;101544.69;;;13.76;100.00
75460;BME280;64039;53.060;9.342;2023-09-08T04:34:42;101548.13;;;13.75;100.00
75460;BME280;64039;53.060;9.342;2023-09-08T04:37:08;101549.84;;;13.73;100.00
75460;BME280;64039;53.060;9.342;2023-09-08T04:39:34;101551.69;;;13.77;100.00
75460;BME280;64039;53.060;9.342;2023-09-08T04:42:01;101547.28;;;13.75;100.00
75460;BME280;64039;53.060;9.342;2023-09-08T04:44:26;101550.03;;;13.82;100.00
75460;BME280;64039;53.060;9.342;2023-09-08T04:46:52;101545.06;;;13.98;100.00
75460;BME280;64039;53.060;9.342;2023-09-08T04:49:18;101550.19;;;13.90;100.00
75460;BME280;64039;53.060;9.342;2023-09-08T04:51:44;101548.44;;;13.91;100.00
75460;BME280;64039;53.060;9.342;2023-09-08T04:54:09;101550.09;;;13.87;100.00
75460;BME280;64039;53.060;9.342;2023-09-08T04:56:35;101550.97;;;13.86;100.00
75460;BME280;64039;53.060;9.342;2023-09-08T04:59:00;101543.03;;;13.81;100.00
75460;BME280;64039;53.060;9.342;2023-09-08T05:01:29;101545.78;;;13.88;100.00
75460;BME280;64039;53.060;9.342;2023-09-08T05:03:58;101544.00;;;13.87;100.00
75460;BME280;64039;53.060;9.342;2023-09-08T05:06:24;101544.97;;;13.92;100.00
75460;BME280;64039;53.060;9.342;2023-09-08T05:08:50;101547.53;;;13.89;100.00
75460;BME280;64039;53.060;9.342;2023-09-08T05:11:16;101543.19;;;13.89;100.00
75460;BME280;64039;53.060;9.342;2023-09-08T05:13:42;101545.72;;;13.84;100.00
75460;BME280;64039;53.060;9.342;2023-09-08T05:16:07;101536.19;;;13.88;100.00
75460;BME280;64039;53.060;9.342;2023-09-08T05:18:41;101537.13;;;13.92;100.00
75460;BME280;64039;53.060;9.342;2023-09-08T05:21:07;101532.72;;;13.89;100.00
75460;BME280;64039;53.060;9.342;2023-09-08T05:23:33;101537.16;;;13.93;100.00
75460;BME280;64039;53.060;9.342;2023-09-08T05:26:00;101538.09;;;13.97;100.00
75460;BME280;64039;53.060;9.342;2023-09-08T05:28:25;101544.22;;;13.97;100.00
75460;BME280;64039;53.060;9.342;2023-09-08T05:30:52;101542.44;;;13.96;100.00
75460;BME280;64039;53.060;9.342;2023-09-08T05:33:17;101539.06;;;14.02;100.00
75460;BME280;64039;53.060;9.342;2023-09-08T05:35:44;101532.97;;;14.03;100.00
75460;BME280;64039;53.060;9.342;2023-09-08T05:38:09;101540.84;;;14.05;100.00
75460;BME280;64039;53.060;9.342;2023-09-08T05:40:35;101540.09;;;14.10;100.00
75460;BME280;64039;53.060;9.342;2023-09-08T05:43:00;101536.69;;;14.16;100.00
75460;BME280;64039;53.060;9.342;2023-09-08T05:45:26;101539.34;;;14.19;100.00
75460;BME280;64039;53.060;9.342;2023-09-08T05:47:52;101543.72;;;14.19;100.00
75460;BME280;64039;53.060;9.342;2023-09-08T05:50:17;101538.66;;;14.28;100.00
75460;BME280;64039;53.060;9.342;2023-09-08T05:52:43;101535.19;;;14.30;100.00
75460;BME280;64039;53.060;9.342;2023-09-08T05:55:09;101531.72;;;14.31;100.00
75460;BME280;64039;53.060;9.342;2023-09-08T05:57:34;101534.50;;;14.39;100.00
75460;BME280;64039;53.060;9.342;2023-09-08T06:00:01;101534.50;;;14.41;100.00
75460;BME280;64039;53.060;9.342;2023-09-08T06:02:27;101529.34;;;14.45;100.00
75460;BME280;64039;53.060;9.342;2023-09-08T06:04:52;101533.00;;;14.55;100.00
75460;BME280;64039;53.060;9.342;2023-09-08T06:07:18;101540.06;;;14.61;100.00
75460;BME280;64039;53.060;9.342;2023-09-08T06:09:43;101535.88;;;14.71;100.00
75460;BME280;64039;53.060;9.342;2023-09-08T06:12:09;101531.63;;;14.79;100.00
75460;BME280;64039;53.060;9.342;2023-09-08T06:14:34;101535.25;;;14.86;100.00
75460;BME280;64039;53.060;9.342;2023-09-08T06:17:00;101531.06;;;14.97;100.00
75460;BME280;64039;53.060;9.342;2023-09-08T06:19:25;101533.69;;;14.99;100.00
75460;BME280;64039;53.060;9.342;2023-09-08T06:21:50;101535.53;;;15.07;100.00
75460;BME280;64039;53.060;9.342;2023-09-08T06:24:16;101539.13;;;15.14;100.00
75460;BME280;64039;53.060;9.342;2023-09-08T06:26:42;101532.19;;;15.19;100.00
75460;BME280;64039;53.060;9.342;2023-09-08T06:29:08;101535.00;;;15.33;100.00
75460;BME280;64039;53.060;9.342;2023-09-08T06:31:33;101534.22;;;15.40;100.00
75460;BME280;64039;53.060;9.342;2023-09-08T06:33:59;101535.25;;;15.53;100.00
75460;BME280;64039;53.060;9.342;2023-09-08T06:36:24;101530.13;;;15.60;100.00
75460;BME280;64039;53.060;9.342;2023-09-08T06:38:50;101531.09;;;15.68;100.00
75460;BME280;64039;53.060;9.342;2023-09-08T06:41:15;101538.16;;;15.78;100.00
75460;BME280;64039;53.060;9.342;2023-09-08T06:43:42;101538.38;;;15.92;100.00
75460;BME280;64039;53.060;9.342;2023-09-08T06:46:08;101532.34;;;16.01;100.00
75460;BME280;64039;53.060;9.342;2023-09-08T06:48:33;101539.44;;;16.11;100.00
75460;BME280;64039;53.060;9.342;2023-09-08T06:50:59;101548.28;;;16.21;100.00
75460;BME280;64039;53.060;9.342;2023-09-08T06:53:24;101541.41;;;16.32;100.00
75460;BME280;64039;53.060;9.342;2023-09-08T06:55:50;101542.41;;;16.50;100.00
75460;BME280;64039;53.060;9.342;2023-09-08T06:58:16;101548.72;;;16.71;100.00
75460;BME280;64039;53.060;9.342;2023-09-08T07:00:41;101546.09;;;16.72;100.00
75460;BME280;64039;53.060;9.342;2023-09-08T07:03:07;101544.53;;;16.93;100.00
75460;BME280;64039;53.060;9.342;2023-09-08T07:05:34;101541.06;;;17.00;100.00
75460;BME280;64039;53.060;9.342;2023-09-08T07:07:59;101537.59;;;17.07;100.00
75460;BME280;64039;53.060;9.342;2023-09-08T07:10:25;101537.63;;;17.12;100.00
75460;BME280;64039;53.060;9.342;2023-09-08T07:12:50;101539.44;;;17.27;100.00
75460;BME280;64039;53.060;9.342;2023-09-08T07:15:16;101536.88;;;17.38;100.00
75460;BME280;64039;53.060;9.342;2023-09-08T07:17:41;101540.41;;;17.48;100.00
75460;BME280;64039;53.060;9.342;2023-09-08T07:20:07;101531.69;;;17.58;100.00
75460;BME280;64039;53.060;9.342;2023-09-08T07:22:33;101540.50;;;17.65;100.00
75460;BME280;64039;53.060;9.342;2023-09-08T07:24:58;101542.25;;;17.80;100.00
75460;BME280;64039;53.060;9.342;2023-09-08T07:27:24;101538.78;;;17.85;100.00
75460;BME280;64039;53.060;9.342;2023-09-08T07:29:49;101540.53;;;17.92;100.00
75460;BME280;64039;53.060;9.342;2023-09-08T07:32:18;101540.63;;;18.10;100.00
75460;BME280;64039;53.060;9.342;2023-09-08T07:34:44;101547.66;;;18.21;100.00
75460;BME280;64039;53.060;9.342;2023-09-08T07:37:09;101543.28;;;18.33;100.00
75460;BME280;64039;53.060;9.342;2023-09-08T07:39:35;101539.78;;;18.46;100.00
75460;BME280;64039;53.060;9.342;2023-09-08T07:42:01;101541.53;;;18.58;100.00
75460;BME280;64039;53.060;9.342;2023-09-08T07:44:27;101539.75;;;18.74;100.00
75460;BME280;64039;53.060;9.342;2023-09-08T07:46:52;101541.50;;;18.84;100.00
75460;BME280;64039;53.060;9.342;2023-09-08T07:49:18;101536.22;;;18.98;100.00
75460;BME280;64039;53.060;9.342;2023-09-08T07:51:45;101540.59;;;19.12;100.00
75460;BME280;64039;53.060;9.342;2023-09-08T07:54:11;101530.00;;;19.24;100.00
75460;BME280;64039;53.060;9.342;2023-09-08T07:56:36;101527.31;;;19.41;100.00
75460;BME280;64039;53.060;9.342;2023-09-08T07:59:02;101539.53;;;19.62;100.00
75460;BME280;64039;53.060;9.342;2023-09-08T08:01:27;101532.50;;;19.60;100.00
75460;BME280;64039;53.060;9.342;2023-09-08T08:03:53;101533.25;;;19.77;100.00
75460;BME280;64039;53.060;9.342;2023-09-08T08:06:18;101536.72;;;19.97;100.00
75460;BME280;64039;53.060;9.342;2023-09-08T08:08:44;101528.72;;;20.04;100.00
75460;BME280;64039;53.060;9.342;2023-09-08T08:11:11;101537.47;;;20.19;100.00
75460;BME280;64039;53.060;9.342;2023-09-08T08:13:37;101538.25;;;20.29;100.00
75460;BME280;64039;53.060;9.342;2023-09-08T08:16:02;101530.16;;;20.49;100.00
75460;BME280;64039;53.060;9.342;2023-09-08T08:18:28;101521.25;;;20.59;100.00
75460;BME280;64039;53.060;9.342;2023-09-08T08:20:53;101539.69;;;20.67;100.00
75460;BME280;64039;53.060;9.342;2023-09-08T08:23:19;101536.88;;;20.87;100.00
75460;BME280;64039;53.060;9.342;2023-09-08T08:25:44;101531.53;;;20.92;100.00
75460;BME280;64039;53.060;9.342;2023-09-08T08:28:10;101537.59;;;21.03;99.12
75460;BME280;64039;53.060;9.342;2023-09-08T08:30:35;101532.09;;;21.22;99.80
75460;BME280;64039;53.060;9.342;2023-09-08T08:33:01;101531.94;;;21.34;100.00
75460;BME280;64039;53.060;9.342;2023-09-08T08:35:27;101528.22;;;21.49;99.28
75460;BME280;64039;53.060;9.342;2023-09-08T08:37:53;101528.09;;;21.63;97.45
75460;BME280;64039;53.060;9.342;2023-09-08T08:40:19;101527.09;;;21.70;93.95
75460;BME280;64039;53.060;9.342;2023-09-08T08:42:44;101510.94;;;21.89;93.14
75460;BME280;64039;53.060;9.342;2023-09-08T08:45:11;101520.38;;;22.07;92.55
75460;BME280;64039;53.060;9.342;2023-09-08T08:47:37;101527.53;;;22.02;93.22
75460;BME280;64039;53.060;9.342;2023-09-08T08:50:02;101534.34;;;22.17;92.18
75460;BME280;64039;53.060;9.342;2023-09-08T08:52:29;101521.69;;;22.34;88.97
75460;BME280;64039;53.060;9.342;2023-09-08T08:54:55;101527.75;;;22.45;89.99
75460;BME280;64039;53.060;9.342;2023-09-08T08:57:22;101525.75;;;22.58;87.93
75460;BME280;64039;53.060;9.342;2023-09-08T08:59:49;101526.53;;;22.65;88.36
75460;BME280;64039;53.060;9.342;2023-09-08T09:02:17;101532.50;;;22.76;84.97
75460;BME280;64039;53.060;9.342;2023-09-08T09:04:43;101537.50;;;22.93;85.08
75460;BME280;64039;53.060;9.342;2023-09-08T09:07:09;101535.50;;;23.05;86.35
75460;BME280;64039;53.060;9.342;2023-09-08T09:09:36;101544.22;;;23.12;88.18
75460;BME280;64039;53.060;9.342;2023-09-08T09:12:01;101532.50;;;23.23;84.68
75460;BME280;64039;53.060;9.342;2023-09-08T09:14:32;101532.94;;;23.46;81.24
75460;BME280;64039;53.060;9.342;2023-09-08T09:16:58;101531.00;;;23.54;81.85
75460;BME280;64039;53.060;9.342;2023-09-08T09:19:25;101533.41;;;23.65;80.92
75460;BME280;64039;53.060;9.342;2023-09-08T09:21:53;101528.00;;;23.69;82.95
75460;BME280;64039;53.060;9.342;2023-09-08T09:24:37;101527.84;;;23.76;81.74
75460;BME280;64039;53.060;9.342;2023-09-08T09:27:04;101527.34;;;23.99;78.75
75460;BME280;64039;53.060;9.342;2023-09-08T09:29:34;101521.03;;;24.05;79.68
75460;BME280;64039;53.060;9.342;2023-09-08T09:32:07;101522.66;;;24.10;79.98
75460;BME280;64039;53.060;9.342;2023-09-08T09:34:35;101527.03;;;24.13;79.95
75460;BME280;64039;53.060;9.342;2023-09-08T09:37:01;101522.34;;;24.24;76.01
75460;BME280;64039;53.060;9.342;2023-09-08T09:39:30;101519.75;;;24.21;75.11
75460;BME280;64039;53.060;9.342;2023-09-08T09:41:57;101517.66;;;24.34;73.14
75460;BME280;64039;53.060;9.342;2023-09-08T09:44:23;101520.03;;;24.45;72.28
75460;BME280;64039;53.060;9.342;2023-09-08T09:46:52;101516.28;;;24.52;74.22
75460;BME280;64039;53.060;9.342;2023-09-08T09:49:18;101508.97;;;24.60;76.34
75460;BME280;64039;53.060;9.342;2023-09-08T09:51:48;101507.00;;;24.70;75.96
75460;BME280;64039;53.060;9.342;2023-09-08T09:54:15;101502.09;;;24.86;75.57
75460;BME280;64039;53.060;9.342;2023-09-08T09:56:41;101502.88;;;24.91;72.58
75460;BME280;64039;53.060;9.342;2023-09-08T09:59:08;101498.09;;;25.03;72.72
75460;BME280;64039;53.060;9.342;2023-09-08T10:01:35;101504.03;;;25.13;73.77
75460;BME280;64039;53.060;9.342;2023-09-08T10:04:02;101503.78;;;25.22;69.64
75460;BME280;64039;53.060;9.342;2023-09-08T10:06:35;101494.56;;;25.32;69.70
75460;BME280;64039;53.060;9.342;2023-09-08T10:09:01;101494.50;;;25.35;71.32
75460;BME280;64039;53.060;9.342;2023-09-08T10:11:34;101493.47;;;25.41;71.44
75460;BME280;64039;53.060;9.342;2023-09-08T10:14:01;101493.13;;;25.52;71.42
75460;BME280;64039;53.060;9.342;2023-09-08T10:16:28;101491.38;;;25.51;69.95
75460;BME280;64039;53.060;9.342;2023-09-08T10:19:00;101492.16;;;25.54;66.45
75460;BME280;64039;53.060;9.342;2023-09-08T10:21:30;101488.00;;;25.74;66.75
75460;BME280;64039;53.060;9.342;2023-09-08T10:24:09;101496.63;;;25.82;67.71
75460;BME280;64039;53.060;9.342;2023-09-08T10:26:40;101486.53;;;25.92;66.33
75460;BME280;64039;53.060;9.342;2023-09-08T10:29:09;101487.06;;;26.03;65.17
75460;BME280;64039;53.060;9.342;2023-09-08T10:31:35;101488.84;;;26.03;67.27
75460;BME280;64039;53.060;9.342;2023-09-08T10:34:03;101486.34;;;26.25;67.23
75460;BME280;64039;53.060;9.342;2023-09-08T10:36:29;101483.84;;;26.20;67.51
75460;BME280;64039;53.060;9.342;2023-09-08T10:39:31;101483.53;;;26.30;67.43
75460;BME280;64039;53.060;9.342;2023-09-08T10:42:20;101476.97;;;26.40;66.73
75460;BME280;64039;53.060;9.342;2023-09-08T10:47:32;101474.63;;;26.56;66.86
75460;BME280;64039;53.060;9.342;2023-09-08T10:49:59;101468.41;;;26.56;67.01
75460;BME280;64039;53.060;9.342;2023-09-08T10:52:26;101460.31;;;26.59;61.73
75460;BME280;64039;53.060;9.342;2023-09-08T10:54:54;101459.25;;;26.63;60.72
75460;BME280;64039;53.060;9.342;2023-09-08T10:57:24;101465.56;;;26.60;61.16
75460;BME280;64039;53.060;9.342;2023-09-08T10:59:54;101469.66;;;26.71;60.87
75460;BME280;64039;53.060;9.342;2023-09-08T11:02:47;101458.63;;;26.56;59.91
75460;BME280;64039;53.060;9.342;2023-09-08T11:05:14;101459.66;;;26.77;58.65
75460;BME280;64039;53.060;9.342;2023-09-08T11:07:43;101450.66;;;26.80;58.74
75460;BME280;64039;53.060;9.342;2023-09-08T11:10:10;101455.50;;;26.94;56.57
75460;BME280;64039;53.060;9.342;2023-09-08T11:12:37;101450.78;;;27.01;59.01
75460;BME280;64039;53.060;9.342;2023-09-08T11:15:05;101453.69;;;27.18;58.29
75460;BME280;64039;53.060;9.342;2023-09-08T11:17:35;101454.25;;;27.26;57.28
75460;BME280;64039;53.060;9.342;2023-09-08T11:20:02;101449.47;;;27.35;56.28
75460;BME280;64039;53.060;9.342;2023-09-08T11:22:34;101455.72;;;27.35;52.76
75460;BME280;64039;53.060;9.342;2023-09-08T11:25:00;101458.66;;;27.51;52.89
75460;BME280;64039;53.060;9.342;2023-09-08T11:27:28;101462.72;;;27.61;52.93
75460;BME280;64039;53.060;9.342;2023-09-08T11:29:54;101452.28;;;27.55;51.05
75460;BME280;64039;53.060;9.342;2023-09-08T11:32:19;101455.53;;;27.62;51.41
75460;BME280;64039;53.060;9.342;2023-09-08T11:34:45;101452.56;;;27.70;51.09
75460;BME280;64039;53.060;9.342;2023-09-08T11:37:14;101453.78;;;27.83;50.30
75460;BME280;64039;53.060;9.342;2023-09-08T11:39:41;101460.84;;;27.86;49.09
75460;BME280;64039;53.060;9.342;2023-09-08T11:42:08;101453.97;;;28.01;49.00
75460;BME280;64039;53.060;9.342;2023-09-08T11:44:35;101457.09;;;28.12;48.91
75460;BME280;64039;53.060;9.342;2023-09-08T11:47:02;101453.63;;;28.10;50.68
75460;BME280;64039;53.060;9.342;2023-09-08T11:49:36;101451.25;;;28.02;50.40
75460;BME280;64039;53.060;9.342;2023-09-08T11:52:03;101455.78;;;28.00;50.34
75460;BME280;64039;53.060;9.342;2023-09-08T11:54:29;101451.56;;;28.17;50.30
75460;BME280;64039;53.060;9.342;2023-09-08T11:57:01;101450.41;;;28.22;50.35
75460;BME280;64039;53.060;9.342;2023-09-08T11:59:28;101452.16;;;28.23;49.32
75460;BME280;64039;53.060;9.342;2023-09-08T12:01:55;101449.63;;;28.41;48.03
75460;BME280;64039;53.060;9.342;2023-09-08T12:04:21;101442.53;;;28.40;49.55
75460;BME280;64039;53.060;9.342;2023-09-08T12:06:48;101447.19;;;28.35;49.65
75460;BME280;64039;53.060;9.342;2023-09-08T12:09:14;101450.03;;;28.32;49.67
75460;BME280;64039;53.060;9.342;2023-09-08T12:11:40;101439.78;;;28.42;48.28
75460;BME280;64039;53.060;9.342;2023-09-08T12:14:10;101451.00;;;28.50;48.75
75460;BME280;64039;53.060;9.342;2023-09-08T12:16:36;101445.38;;;28.56;45.60
75460;BME280;64039;53.060;9.342;2023-09-08T12:19:02;101438.88;;;28.62;45.26
75460;BME280;64039;53.060;9.342;2023-09-08T12:21:27;101444.88;;;28.67;46.84
75460;BME280;64039;53.060;9.342;2023-09-08T12:23:54;101447.91;;;28.80;45.92
75460;BME280;64039;53.060;9.342;2023-09-08T12:26:20;101443.44;;;28.80;45.49
75460;BME280;64039;53.060;9.342;2023-09-08T12:28:46;101437.19;;;28.80;44.51
75460;BME280;64039;53.060;9.342;2023-09-08T12:31:16;101434.31;;;28.84;47.48
75460;BME280;64039;53.060;9.342;2023-09-08T12:33:43;101431.19;;;28.94;45.32
75460;BME280;64039;53.060;9.342;2023-09-08T12:36:17;101431.16;;;28.95;47.90
75460;BME280;64039;53.060;9.342;2023-09-08T12:38:52;101425.41;;;29.03;46.08
75460;BME280;64039;53.060;9.342;2023-09-08T12:41:19;101432.88;;;28.96;45.71
75460;BME280;64039;53.060;9.342;2023-09-08T12:43:45;101417.25;;;29.06;44.38
75460;BME280;64039;53.060;9.342;2023-09-08T12:46:11;101425.09;;;28.71;48.16
75460;BME280;64039;53.060;9.342;2023-09-08T12:48:37;101421.13;;;28.80;45.84